This is the latest recevied weather packets stored in our database for station/object LU3GHF-13. If no packets are shown the sender has not sent any weather packets the latest 10 day(s).
| Time | Temp. | Humidity | Pressure | Rain* | Wind** | Luminosity | Snow |
|---|---|---|---|---|---|---|---|
| 1788114740 | 21.11° C | 87% | 1004.1 hPa | - | - | - | - |
| 1788114094 | 21.11° C | 87% | 1004.2 hPa | - | - | - | - |
| 1788113456 | 20.56° C | 88% | 1004.4 hPa | - | - | - | - |
| 1788112813 | 20.56° C | 88% | 1004.4 hPa | - | - | - | - |
| 1788112165 | 21.11° C | 87% | 1004.5 hPa | - | - | - | - |
| 1788111518 | 20.56° C | 88% | 1004.8 hPa | - | - | - | - |
| 1788110879 | 20.56° C | 88% | 1004.9 hPa | - | - | - | - |
| 1788110234 | 20° C | 89% | 1005.1 hPa | - | - | - | - |
| 1788109597 | 20.56° C | 88% | 1005.1 hPa | - | - | - | - |
| 1788108992 | 20.56° C | 87% | 1005.4 hPa | - | - | - | - |
| 1788108353 | 20° C | 90% | 1005.6 hPa | - | - | - | - |
| 1788107748 | 21.11° C | 86% | 1005.5 hPa | - | - | - | - |
| 1788107137 | 20.56° C | 87% | 1005.6 hPa | - | - | - | - |
| 1788106488 | 20.56° C | 87% | 1005.8 hPa | - | - | - | - |
| 1788105852 | 20.56° C | 87% | 1006.1 hPa | - | - | - | - |
| 1788105247 | 20° C | 88% | 1006 hPa | - | - | - | - |
| 1788104611 | 20.56° C | 87% | 1006.3 hPa | - | - | - | - |
| 1788103982 | 19.44° C | 90% | 1006.5 hPa | - | - | - | - |
| 1788103343 | 20° C | 90% | 1006.5 hPa | - | - | - | - |
| 1788102727 | 19.44° C | 90% | 1006.7 hPa | - | - | - | - |
| 1788102097 | 20° C | 89% | 1006.7 hPa | - | - | - | - |
| 1788101447 | 19.44° C | 91% | 1007.1 hPa | - | - | - | - |
| 1788100805 | 19.44° C | 92% | 1007.2 hPa | - | - | - | - |
| 1788100198 | 19.44° C | 90% | 1006.9 hPa | - | - | - | - |
| 1788099582 | 19.44° C | 91% | 1007.1 hPa | - | - | - | - |
* Rain since midnight (hover to see other rain measurements)
** Current wind speed in m/s (hover to see current wind gust speed)